^^
Station Historical Data
Daily Summary for July 6, 2017 Units:  English    Metric   Both
« Previous Day
Next Day »
Daily Weekly Monthly Yearly Custom
  High: Low: Average:
Temperature: 79.0 °F 66.3 °F 71.6 °F
Dew Point: 64.6 °F 57.2 °F 60.8 °F
Humidity: 85% 50% 70%
Wind Speed: 5.0mph 0.0mph 0.6mph
Wind Gust: 14.0mph - -
Wind- - SW
Pressure: 30.20 in 29.99 in -
Precipitation: 0.00 in    
Historical Graphs
 
 
Tabular Data for July 6, 2017
Time Temperature Dew Point Pressure Wind Wind Speed Wind Gust Humidity Rainfall Rate (Hourly) Conditions
00:00 69.3 °F 59.1 °F 30.20 in Calm   1.0 mph 70% 0.00 in SCT
00:15 68.7 °F 59.3 °F 30.19 in Calm     72% 0.00 in BKN
00:30 67.7 °F 59.1 °F 30.19 in Calm   1.0 mph 74% 0.00 in BKN
00:45 67.0 °F 59.2 °F 30.18 in Calm   1.0 mph 76% 0.00 in BKN
01:00 66.9 °F 59.8 °F 30.18 in Calm   2.0 mph 78% 0.00 in BKN
01:15 66.7 °F 60.0 °F 30.17 in Calm   1.0 mph 79% 0.00 in SCT
01:30 66.5 °F 60.1 °F 30.17 in Calm     80% 0.00 in SCT
01:45 66.5 °F 60.5 °F 30.17 in Calm   1.0 mph 81% 0.00 in SCT
02:00 66.3 °F 60.3 °F 30.18 in Calm     81% 0.00 in SCT
02:15 66.4 °F 60.7 °F 30.18 in Calm     82% 0.00 in FEW
02:30 67.0 °F 61.3 °F 30.17 in Calm   1.0 mph 82% 0.00 in FEW
02:45 67.3 °F 61.6 °F 30.17 in Calm   1.0 mph 82% 0.00 in FEW
03:00 67.4 °F 61.7 °F 30.17 in Calm   1.0 mph 82% 0.00 in FEW
03:15 67.3 °F 61.6 °F 30.16 in Calm   1.0 mph 82% 0.00 in BKN
03:30 67.2 °F 61.9 °F 30.15 in Calm   1.0 mph 83% 0.00 in BKN
03:45 67.2 °F 61.9 °F 30.15 in Calm   1.0 mph 83% 0.00 in BKN
04:00 67.3 °F 62.0 °F 30.15 in Calm   2.0 mph 83% 0.00 in BKN
04:30 67.3 °F 62.3 °F 30.15 in Calm   2.0 mph 84% 0.00 in BKN
04:45 67.3 °F 62.3 °F 30.15 in NNW 1.0 mph 3.0 mph 84% 0.00 in BKN
05:30 67.3 °F 62.6 °F 30.15 in Calm   2.0 mph 85% 0.00 in BKN
05:45 67.3 °F 62.6 °F 30.15 in Calm   2.0 mph 85% 0.00 in BKN
06:00 67.3 °F 62.6 °F 30.15 in Calm   2.0 mph 85% 0.00 in BKN
06:30 67.5 °F 62.8 °F 30.15 in Calm   2.0 mph 85% 0.00 in BKN
06:45 67.6 °F 62.9 °F 30.14 in Calm   2.0 mph 85% 0.00 in BKN
07:00 67.7 °F 63.0 °F 30.15 in Calm   2.0 mph 85% 0.00 in BKN
07:15 67.9 °F 63.2 °F 30.15 in Calm   2.0 mph 85% 0.00 in BKN
07:30 68.1 °F 63.4 °F 30.15 in Calm   1.0 mph 85% 0.00 in BKN
07:45 68.3 °F 63.6 °F 30.15 in Calm     85% 0.00 in BKN
08:00 68.4 °F 63.7 °F 30.16 in Calm   1.0 mph 85% 0.00 in BKN
08:15 68.8 °F 64.1 °F 30.16 in Calm   3.0 mph 85% 0.00 in BKN
08:30 69.2 °F 64.2 °F 30.16 in Calm   3.0 mph 84% 0.00 in BKN
08:45 69.8 °F 64.4 °F 30.15 in South 1.0 mph 4.0 mph 83% 0.00 in BKN
09:00 70.6 °F 64.1 °F 30.15 in Calm   6.0 mph 80% 0.00 in BKN
09:15 71.1 °F 64.6 °F 30.15 in SSW 1.0 mph 4.0 mph 80% 0.00 in OVC
09:30 71.5 °F 64.3 °F 30.15 in Calm   3.0 mph 78% 0.00 in OVC
09:45 72.1 °F 64.1 °F 30.15 in Calm   3.0 mph 76% 0.00 in OVC
10:00 72.4 °F 64.0 °F 30.16 in WSW 1.0 mph 3.0 mph 75% 0.00 in OVC
10:15 72.4 °F 63.3 °F 30.16 in SSW 2.0 mph 3.0 mph 73% 0.00 in BKN
10:30 72.3 °F 63.1 °F 30.16 in Calm   5.0 mph 73% 0.00 in BKN
10:45 72.7 °F 63.5 °F 30.15 in SSW 2.0 mph 5.0 mph 73% 0.00 in BKN
11:00 73.3 °F 63.7 °F 30.16 in SSW 1.0 mph 5.0 mph 72% 0.00 in BKN
11:15 73.1 °F 63.1 °F 30.15 in SW 1.0 mph 6.0 mph 71% 0.00 in SCT
11:30 73.2 °F 63.2 °F 30.15 in West 1.0 mph 5.0 mph 71% 0.00 in SCT
11:45 73.5 °F 63.1 °F 30.14 in South 1.0 mph 7.0 mph 70% 0.00 in SCT
12:00 74.0 °F 62.8 °F 30.14 in SW 3.0 mph 7.0 mph 68% 0.00 in SCT
12:15 74.0 °F 62.3 °F 30.14 in SW 3.0 mph 8.0 mph 67% 0.00 in CLR
12:30 74.1 °F 62.8 °F 30.13 in South 2.0 mph 7.0 mph 68% 0.00 in CLR
12:45 74.4 °F 64.0 °F 30.13 in SW 1.0 mph 5.0 mph 70% 0.00 in CLR
13:00 74.8 °F 63.1 °F 30.13 in SW 1.0 mph 6.0 mph 67% 0.00 in CLR
13:15 75.9 °F 61.5 °F 30.13 in SSW 1.0 mph 7.0 mph 61% 0.00 in FEW
13:30 76.7 °F 62.7 °F 30.12 in SW 5.0 mph 10.0 mph 62% 0.00 in FEW
13:45 77.0 °F 61.1 °F 30.11 in SW 2.0 mph 9.0 mph 58% 0.00 in FEW
14:00 77.9 °F 60.4 °F 30.11 in SSW 2.0 mph 7.0 mph 55% 0.00 in FEW
14:15 77.1 °F 60.7 °F 30.11 in SW 3.0 mph 14.0 mph 57% 0.00 in FEW
14:30 78.0 °F 57.9 °F 30.11 in SSW 3.0 mph 10.0 mph 50% 0.00 in FEW
14:45 78.2 °F 58.6 °F 30.10 in SW 2.0 mph 7.0 mph 51% 0.00 in FEW
15:00 79.0 °F 58.7 °F 30.10 in WSW 3.0 mph 8.0 mph 50% 0.00 in FEW
15:15 78.2 °F 58.6 °F 30.09 in SSW 1.0 mph 12.0 mph 51% 0.00 in FEW
15:30 77.4 °F 58.4 °F 30.08 in Calm   9.0 mph 52% 0.00 in FEW
15:45 77.2 °F 57.7 °F 30.08 in SSW 2.0 mph 7.0 mph 51% 0.00 in FEW
16:00 77.2 °F 57.7 °F 30.07 in SSW 1.0 mph 9.0 mph 51% 0.00 in FEW
16:15 76.9 °F 57.9 °F 30.07 in SSW 2.0 mph 8.0 mph 52% 0.00 in CLR
16:30 76.5 °F 59.1 °F 30.06 in SW 1.0 mph 6.0 mph 55% 0.00 in CLR
16:45 76.7 °F 59.3 °F 30.05 in SW 1.0 mph 6.0 mph 55% 0.00 in CLR
17:00 77.0 °F 58.0 °F 30.05 in South 3.0 mph 9.0 mph 52% 0.00 in CLR
17:15 76.6 °F 59.8 °F 30.05 in SW 1.0 mph 8.0 mph 56% 0.00 in CLR
17:30 76.0 °F 59.2 °F 30.04 in Calm   4.0 mph 56% 0.00 in CLR
17:45 75.4 °F 58.6 °F 30.03 in Calm   5.0 mph 56% 0.00 in CLR
18:00 75.3 °F 59.0 °F 30.03 in Calm   4.0 mph 57% 0.00 in CLR
18:15 75.1 °F 59.8 °F 30.03 in Calm   2.0 mph 59% 0.00 in CLR
18:30 74.9 °F 60.1 °F 30.04 in Calm   4.0 mph 60% 0.00 in CLR
18:45 74.8 °F 60.0 °F 30.03 in Calm   3.0 mph 60% 0.00 in CLR
19:00 74.2 °F 59.0 °F 30.02 in West 1.0 mph 1.0 mph 59% 0.00 in CLR
19:15 73.7 °F 58.0 °F 30.02 in Calm   2.0 mph 58% 0.00 in CLR
19:30 73.7 °F 58.5 °F 30.01 in SSE 1.0 mph 3.0 mph 59% 0.00 in CLR
19:45 73.1 °F 58.8 °F 30.02 in Calm   4.0 mph 61% 0.00 in CLR
20:00 72.7 °F 59.4 °F 30.02 in Calm   1.0 mph 63% 0.00 in CLR
20:15 72.0 °F 59.6 °F 30.02 in Calm   1.0 mph 65% 0.00 in CLR
20:30 71.1 °F 59.2 °F 30.02 in Calm   2.0 mph 66% 0.00 in CLR
20:45 70.6 °F 59.6 °F 30.02 in Calm   1.0 mph 68% 0.00 in CLR
21:00 70.3 °F 58.8 °F 30.01 in Calm   1.0 mph 67% 0.00 in CLR
21:16 70.1 °F 59.0 °F 30.01 in Calm   3.0 mph 68% 0.00 in FEW
21:30 70.2 °F 57.4 °F 30.01 in Calm   3.0 mph 64% 0.00 in FEW
21:45 70.2 °F 57.9 °F 30.01 in Calm   1.0 mph 65% 0.00 in FEW
22:00 70.0 °F 57.3 °F 30.01 in Calm   2.0 mph 64% 0.00 in FEW
22:15 69.9 °F 57.2 °F 30.01 in Calm   2.0 mph 64% 0.00 in BKN
22:30 69.8 °F 57.5 °F 30.01 in Calm   1.0 mph 65% 0.00 in BKN
22:45 69.7 °F 57.8 °F 30.00 in Calm   1.0 mph 66% 0.00 in BKN
23:00 69.6 °F 58.2 °F 30.00 in Calm   1.0 mph 67% 0.00 in BKN
23:15 69.7 °F 58.6 °F 29.99 in Calm   3.0 mph 68% 0.00 in BKN
23:30 69.6 °F 59.0 °F 29.99 in Calm   2.0 mph 69% 0.00 in BKN
23:45 69.4 °F 59.2 °F 29.99 in Calm   2.0 mph 70% 0.00 in BKN
TarryTown NY Weather
Compliments of Weather Underground - 1.5 mb